createdAt,value
2022-10-11T00:01:02.266Z,54.46
2022-10-11T00:03:36.657Z,53.62
2022-10-11T00:06:06.637Z,54.91
2022-10-11T00:08:35.722Z,57.10
2022-10-11T00:11:06.442Z,58.66
2022-10-11T00:13:34.572Z,59.89
2022-10-11T00:16:08.877Z,61.00
2022-10-11T00:18:46.519Z,66.55
2022-10-11T00:21:16.504Z,64.69
2022-10-11T00:23:44.346Z,64.38
2022-10-11T00:26:12.399Z,64.03
2022-10-11T00:28:41.741Z,56.76
2022-10-11T00:31:15.796Z,55.06
2022-10-11T00:33:44.281Z,56.24
2022-10-11T00:36:16.877Z,57.62
2022-10-11T00:38:45.938Z,58.70
2022-10-11T00:41:14.365Z,60.15
2022-10-11T00:43:42.795Z,66.67
2022-10-11T00:46:13.908Z,65.44
2022-10-11T00:48:48.998Z,61.60
2022-10-11T00:51:23.970Z,60.51
2022-10-11T00:53:53.660Z,54.01
2022-10-11T00:56:26.574Z,53.50
2022-10-11T00:58:56.163Z,54.80
2022-10-11T01:01:24.189Z,57.18
2022-10-11T01:03:52.351Z,58.47
2022-10-11T01:06:20.136Z,59.88
2022-10-11T01:08:50.207Z,61.29
2022-10-11T01:11:21.594Z,66.97
2022-10-11T01:14:06.412Z,67.46
2022-10-11T01:16:37.153Z,63.45
2022-10-11T01:19:27.451Z,57.04
2022-10-11T01:22:35.157Z,55.55
2022-10-11T01:25:48.384Z,57.25
2022-10-11T01:28:16.489Z,58.89
2022-10-11T01:30:45.763Z,60.71
2022-10-11T01:33:16.799Z,68.17
2022-10-11T01:36:17.399Z,66.95
2022-10-11T01:38:54.929Z,59.17
2022-10-11T01:41:31.392Z,53.46
2022-10-11T01:44:02.544Z,54.50
2022-10-11T01:46:31.412Z,56.49
2022-10-11T01:49:02.134Z,58.57
2022-10-11T01:51:38.595Z,60.13
2022-10-11T01:54:11.793Z,66.94
2022-10-11T01:56:49.839Z,66.69
2022-10-11T01:59:46.052Z,57.62
2022-10-11T02:02:38.944Z,54.52
2022-10-11T02:05:07.007Z,55.98
2022-10-11T02:07:49.327Z,58.42
2022-10-11T02:10:33.334Z,60.09
2022-10-11T02:13:17.279Z,68.37
2022-10-11T02:15:48.608Z,66.15
2022-10-11T02:18:23.232Z,59.35
2022-10-11T02:20:53.135Z,53.57
2022-10-11T02:23:28.354Z,54.65
2022-10-11T02:25:58.077Z,56.65
2022-10-11T02:28:31.925Z,58.54
2022-10-11T02:31:02.217Z,60.48
2022-10-11T02:33:39.016Z,67.25
2022-10-11T02:36:25.370Z,66.47
2022-10-11T02:38:59.737Z,59.53
2022-10-11T02:41:36.563Z,55.38
2022-10-11T02:44:13.908Z,56.73
2022-10-11T02:46:43.918Z,58.60
2022-10-11T02:49:13.429Z,60.71
2022-10-11T02:51:41.508Z,66.46
2022-10-11T02:54:09.535Z,67.81
2022-10-11T02:56:37.541Z,61.35
2022-10-11T02:59:05.419Z,59.54
2022-10-11T03:01:33.606Z,55.67
2022-10-11T03:04:01.551Z,56.89
2022-10-11T03:06:29.466Z,58.97
2022-10-11T03:08:57.346Z,61.21
2022-10-11T03:11:26.120Z,66.60
2022-10-11T03:13:54.005Z,65.77
2022-10-11T03:16:22.063Z,62.40
2022-10-11T03:18:50.235Z,60.42
2022-10-11T03:21:18.744Z,60.41
2022-10-11T03:23:46.585Z,60.85
2022-10-11T03:26:14.588Z,56.05
2022-10-11T03:28:42.646Z,55.87
2022-10-11T03:31:10.594Z,58.76
2022-10-11T03:33:38.788Z,60.44
2022-10-11T03:36:09.273Z,65.98
2022-10-11T03:38:37.342Z,66.94
2022-10-11T03:41:05.453Z,61.42
2022-10-11T03:43:33.575Z,55.69
2022-10-11T03:46:01.657Z,56.13
2022-10-11T03:48:29.938Z,58.47
2022-10-11T03:50:58.186Z,61.00
2022-10-11T03:53:26.165Z,65.29
2022-10-11T03:55:55.407Z,64.81
2022-10-11T03:58:24.205Z,63.42
2022-10-11T04:00:53.970Z,63.41
2022-10-11T04:03:21.856Z,63.70
2022-10-11T04:05:50.193Z,63.55
2022-10-11T04:08:17.971Z,62.40
2022-10-11T04:10:45.866Z,61.76
2022-10-11T04:13:13.981Z,60.44
2022-10-11T04:15:41.894Z,60.20
2022-10-11T04:18:10.172Z,60.06
2022-10-11T04:20:38.287Z,59.98
2022-10-11T04:23:06.440Z,59.57
2022-10-11T04:25:34.412Z,57.95
2022-10-11T04:28:02.948Z,59.28
2022-10-11T04:30:30.859Z,61.06
2022-10-11T04:32:59.384Z,65.74
2022-10-11T04:35:27.731Z,64.96
2022-10-11T04:37:55.861Z,64.72
2022-10-11T04:40:24.109Z,63.93
2022-10-11T04:42:54.113Z,61.84
2022-10-11T04:45:22.284Z,61.29
2022-10-11T04:47:50.883Z,61.06
2022-10-11T04:50:20.291Z,61.26
2022-10-11T04:52:48.337Z,60.72
2022-10-11T04:55:17.016Z,60.51
2022-10-11T04:57:44.992Z,60.33
2022-10-11T05:00:13.369Z,61.39
2022-10-11T05:02:41.529Z,59.10
2022-10-11T05:05:10.179Z,58.13
2022-10-11T05:07:38.350Z,60.08
2022-10-11T05:10:07.026Z,64.81
2022-10-11T05:12:35.159Z,65.28
2022-10-11T05:15:03.446Z,64.18
2022-10-11T05:17:31.379Z,63.81
2022-10-11T05:19:59.311Z,63.93
2022-10-11T05:22:27.481Z,63.29
2022-10-11T05:24:55.507Z,63.63
2022-10-11T05:27:23.546Z,62.70
2022-10-11T05:29:51.521Z,62.86
2022-10-11T05:32:19.824Z,62.76
2022-10-11T05:34:47.872Z,62.64
2022-10-11T05:37:16.034Z,62.91
2022-10-11T05:39:43.957Z,59.95
2022-10-11T05:42:12.016Z,56.46
2022-10-11T05:44:40.038Z,58.21
2022-10-11T05:47:08.032Z,60.69
2022-10-11T05:49:36.045Z,67.75
2022-10-11T05:52:04.059Z,65.86
2022-10-11T05:54:32.546Z,59.30
2022-10-11T05:57:00.656Z,54.41
2022-10-11T05:59:28.666Z,56.64
2022-10-11T06:01:56.696Z,59.07
2022-10-11T06:04:24.877Z,62.06
2022-10-11T06:06:53.072Z,67.83
2022-10-11T06:09:21.129Z,65.30
2022-10-11T06:11:49.044Z,63.29
2022-10-11T06:14:16.951Z,61.16
2022-10-11T06:16:44.984Z,58.83
2022-10-11T06:19:13.017Z,58.97
2022-10-11T06:21:41.118Z,61.55
2022-10-11T06:24:09.479Z,66.82
2022-10-11T06:26:37.517Z,67.52
2022-10-11T06:29:05.656Z,62.61
2022-10-11T06:31:34.391Z,60.87
2022-10-11T06:34:02.623Z,56.93
2022-10-11T06:36:31.005Z,57.65
2022-10-11T06:39:01.586Z,60.43
2022-10-11T06:41:30.763Z,64.87
2022-10-11T06:43:58.729Z,65.24
2022-10-11T06:46:28.412Z,59.94
2022-10-11T06:48:56.772Z,56.05
2022-10-11T06:51:25.596Z,57.43
2022-10-11T06:53:58.267Z,59.89
2022-10-11T06:56:27.916Z,63.73
2022-10-11T06:58:57.707Z,64.53
2022-10-11T07:01:26.679Z,64.41
2022-10-11T07:03:57.706Z,63.28
2022-10-11T07:06:28.286Z,61.05
2022-10-11T07:08:56.857Z,60.21
2022-10-11T07:11:27.120Z,60.77
2022-10-11T07:14:01.386Z,61.14
2022-10-11T07:16:29.342Z,61.65
2022-10-11T07:19:00.935Z,61.77
2022-10-11T07:21:30.818Z,61.99
2022-10-11T07:23:59.426Z,62.30
2022-10-11T07:26:32.434Z,62.42
2022-10-11T07:29:05.936Z,62.49
2022-10-11T07:31:33.924Z,63.88
2022-10-11T07:34:01.730Z,61.64
2022-10-11T07:36:29.978Z,61.14
2022-10-11T07:38:57.888Z,61.15
2022-10-11T07:41:25.822Z,61.31
2022-10-11T07:43:55.024Z,61.42
2022-10-11T07:46:23.054Z,61.57
2022-10-11T07:48:50.996Z,61.77
2022-10-11T07:51:22.962Z,61.94
2022-10-11T07:53:56.622Z,61.80
2022-10-11T07:56:32.406Z,61.17
2022-10-11T07:59:03.787Z,61.24
2022-10-11T08:01:32.398Z,61.58
2022-10-11T08:04:00.728Z,61.79
2022-10-11T08:06:32.552Z,62.08
2022-10-11T08:09:02.067Z,61.97
2022-10-11T08:11:33.644Z,61.91
2022-10-11T08:14:04.564Z,61.93
2022-10-11T08:16:33.516Z,62.29
2022-10-11T08:19:03.240Z,62.07
2022-10-11T08:21:34.275Z,61.94
2022-10-11T08:24:03.967Z,62.12
2022-10-11T08:26:33.367Z,62.15
2022-10-11T08:29:03.539Z,62.04
2022-10-11T08:31:32.727Z,61.98
2022-10-11T08:34:00.688Z,61.59
2022-10-11T08:36:28.918Z,61.55
2022-10-11T08:38:57.396Z,61.63
2022-10-11T08:41:28.551Z,61.58
2022-10-11T08:43:56.809Z,61.22
2022-10-11T08:46:31.264Z,60.59
2022-10-11T08:49:01.682Z,59.99
2022-10-11T08:52:02.852Z,59.70
2022-10-11T08:54:48.170Z,58.25
2022-10-11T08:57:37.396Z,59.61
2022-10-11T09:00:14.169Z,61.40
2022-10-11T09:03:21.946Z,65.89
2022-10-11T09:06:32.039Z,65.60
2022-10-11T09:09:18.279Z,64.55
2022-10-11T09:11:49.224Z,62.92
2022-10-11T09:14:34.531Z,62.39
2022-10-11T09:17:20.856Z,62.21
2022-10-11T09:20:01.354Z,61.66
2022-10-11T09:23:09.876Z,61.55
2022-10-11T09:26:04.117Z,60.74
2022-10-11T09:28:46.435Z,59.94
2022-10-11T09:31:16.012Z,59.57
2022-10-11T09:33:49.367Z,59.89
2022-10-11T09:36:20.576Z,58.84
2022-10-11T09:38:57.591Z,59.02
2022-10-11T09:41:36.985Z,60.91
2022-10-11T09:44:07.284Z,64.07
2022-10-11T09:46:40.582Z,64.22
2022-10-11T09:49:14.543Z,62.73
2022-10-11T09:51:47.771Z,62.45
2022-10-11T09:54:27.456Z,62.16
2022-10-11T09:56:55.769Z,61.51
2022-10-11T09:59:35.915Z,62.49
2022-10-11T10:02:13.916Z,62.53
2022-10-11T10:05:00.716Z,60.18
2022-10-11T10:07:31.759Z,57.45
2022-10-11T10:10:09.720Z,58.09
2022-10-11T10:12:37.956Z,60.17
2022-10-11T10:15:19.209Z,61.53
2022-10-11T10:17:52.148Z,64.38
2022-10-11T10:20:24.905Z,63.55
2022-10-11T10:22:54.144Z,61.51
2022-10-11T10:25:30.371Z,60.70
2022-10-11T10:28:01.294Z,58.55
2022-10-11T10:30:35.225Z,58.67
2022-10-11T10:33:11.480Z,58.99
2022-10-11T10:35:45.732Z,60.14
2022-10-11T10:38:25.546Z,61.81
2022-10-11T10:41:01.562Z,64.60
2022-10-11T10:43:34.956Z,62.93
2022-10-11T10:46:12.325Z,58.52
2022-10-11T10:49:19.166Z,56.64
2022-10-11T10:51:50.845Z,57.05
2022-10-11T10:54:30.726Z,58.05
2022-10-11T10:57:03.757Z,59.93
2022-10-11T10:59:45.289Z,60.58
2022-10-11T11:02:39.804Z,61.50
2022-10-11T11:05:26.309Z,62.65
2022-10-11T11:08:17.256Z,64.61
2022-10-11T11:10:57.797Z,61.18
2022-10-11T11:13:37.902Z,59.31
2022-10-11T11:16:37.404Z,58.06
2022-10-11T11:19:05.450Z,59.20
2022-10-11T11:22:07.004Z,59.60
2022-10-11T11:24:40.884Z,60.47
2022-10-11T11:27:18.548Z,60.90
2022-10-11T11:30:00.614Z,60.12
2022-10-11T11:33:00.842Z,59.70
2022-10-11T11:35:38.157Z,61.11
2022-10-11T11:38:40.659Z,60.21
2022-10-11T11:41:29.904Z,59.46
2022-10-11T11:44:15.971Z,61.84
2022-10-11T11:46:45.641Z,60.93
2022-10-11T11:49:38.078Z,60.92
2022-10-11T11:52:08.590Z,59.52
2022-10-11T11:55:00.180Z,60.09
2022-10-11T11:57:47.044Z,62.37
2022-10-11T12:00:23.832Z,61.88
2022-10-11T12:03:03.795Z,59.62
2022-10-11T12:05:36.256Z,57.91
2022-10-11T12:08:24.274Z,58.32
2022-10-11T12:11:01.564Z,58.47
2022-10-11T12:13:38.094Z,59.21
2022-10-11T12:16:14.833Z,59.21
2022-10-11T12:18:54.325Z,58.98
2022-10-11T12:21:33.430Z,58.68
2022-10-11T12:24:15.145Z,58.41
2022-10-11T12:26:45.572Z,57.16
2022-10-11T12:29:27.432Z,57.85
2022-10-11T12:32:00.397Z,58.75
2022-10-11T12:34:36.711Z,58.65
2022-10-11T12:37:20.130Z,58.78
2022-10-11T12:39:58.984Z,60.08
2022-10-11T12:42:34.745Z,59.41
2022-10-11T12:45:14.781Z,58.85
2022-10-11T12:48:01.799Z,57.72
2022-10-11T12:50:48.044Z,57.21
2022-10-11T12:53:41.156Z,58.61
2022-10-11T12:56:45.408Z,57.68
2022-10-11T12:59:22.759Z,57.91
2022-10-11T13:01:53.766Z,57.23
2022-10-11T13:04:29.263Z,57.17
2022-10-11T13:07:06.755Z,57.43
2022-10-11T13:09:44.167Z,57.33
2022-10-11T13:12:23.476Z,57.22
2022-10-11T13:15:07.215Z,58.04
2022-10-11T13:17:38.778Z,58.33
2022-10-11T13:20:16.467Z,58.49
2022-10-11T13:22:47.914Z,58.87
2022-10-11T13:25:23.828Z,59.12
2022-10-11T13:27:53.636Z,59.32
2022-10-11T13:30:27.905Z,58.25
2022-10-11T13:32:59.386Z,58.10
2022-10-11T13:35:30.842Z,58.08
2022-10-11T13:37:59.630Z,58.08
2022-10-11T13:40:28.592Z,59.08
2022-10-11T13:42:57.710Z,58.12
2022-10-11T13:45:30.675Z,57.69
2022-10-11T13:47:59.231Z,57.98
2022-10-11T13:50:33.782Z,58.32
2022-10-11T13:53:12.258Z,57.84
2022-10-11T13:55:53.622Z,56.83
2022-10-11T13:58:28.749Z,56.01
2022-10-11T14:01:06.817Z,55.72
2022-10-11T14:03:44.002Z,54.85
2022-10-11T14:06:12.550Z,53.42
2022-10-11T14:08:48.582Z,53.74
2022-10-11T14:11:33.756Z,54.32
2022-10-11T14:14:28.601Z,53.45
2022-10-11T14:17:13.155Z,54.96
2022-10-11T14:19:42.792Z,54.71
2022-10-11T14:22:17.282Z,54.93
2022-10-11T14:24:48.705Z,54.96
2022-10-11T14:27:20.726Z,53.94
2022-10-11T14:30:12.884Z,51.90
2022-10-11T14:32:42.344Z,48.84
2022-10-11T14:35:23.765Z,46.66
2022-10-11T14:37:52.507Z,43.56
2022-10-11T14:40:27.332Z,42.32
2022-10-11T14:42:55.406Z,39.94
2022-10-11T14:45:24.489Z,39.49
2022-10-11T14:47:52.497Z,40.39
2022-10-11T14:50:47.978Z,38.99
2022-10-11T14:53:16.832Z,38.24
2022-10-11T14:55:45.150Z,38.83
2022-10-11T14:58:15.791Z,38.78
2022-10-11T15:00:44.799Z,38.50
2022-10-11T15:03:14.122Z,38.32
2022-10-11T15:05:42.318Z,38.86
2022-10-11T15:08:15.359Z,40.32
2022-10-11T15:10:43.204Z,41.23
2022-10-11T15:13:11.265Z,42.33
2022-10-11T15:15:41.563Z,43.31
2022-10-11T15:18:13.233Z,44.64
2022-10-11T15:20:45.326Z,45.56
2022-10-11T15:23:13.661Z,46.56
2022-10-11T15:25:42.269Z,47.70
2022-10-11T15:28:24.147Z,48.88
2022-10-11T15:30:52.770Z,49.31
2022-10-11T15:33:21.524Z,50.94
2022-10-11T15:35:49.706Z,52.30
2022-10-11T15:38:23.168Z,52.55
2022-10-11T15:40:52.385Z,54.05
2022-10-11T15:43:24.503Z,54.77
2022-10-11T15:45:55.005Z,55.65
2022-10-11T15:48:26.443Z,56.38
2022-10-11T15:50:55.171Z,56.62
2022-10-11T15:53:28.675Z,57.67
2022-10-11T15:56:01.047Z,58.31
2022-10-11T15:58:32.915Z,58.95
2022-10-11T16:01:13.912Z,59.43
2022-10-11T16:03:42.192Z,60.08
2022-10-11T16:06:11.146Z,60.18
2022-10-11T16:08:39.495Z,60.49
2022-10-11T16:11:08.816Z,61.00
2022-10-11T16:13:37.223Z,61.46
2022-10-11T16:16:07.955Z,61.94
2022-10-11T16:18:36.885Z,65.22
2022-10-11T16:21:10.197Z,65.24
2022-10-11T16:23:50.121Z,63.21
2022-10-11T16:26:18.512Z,61.49
2022-10-11T16:28:48.621Z,63.23
2022-10-11T16:31:20.881Z,63.96
2022-10-11T16:33:50.323Z,57.18
2022-10-11T16:36:36.756Z,55.02
2022-10-11T16:39:14.606Z,55.25
2022-10-11T16:41:43.562Z,56.30
2022-10-11T16:44:14.724Z,57.63
2022-10-11T16:46:42.906Z,58.52
2022-10-11T16:49:11.070Z,59.31
2022-10-11T16:51:39.549Z,60.25
2022-10-11T16:54:07.576Z,60.62
2022-10-11T16:56:39.757Z,64.45
2022-10-11T16:59:08.390Z,64.09
2022-10-11T17:01:37.266Z,62.95
2022-10-11T17:07:08.267Z,64.50
2022-10-11T17:09:39.165Z,61.27
2022-10-11T17:12:16.862Z,57.41
2022-10-11T17:14:45.051Z,55.83
2022-10-11T17:17:13.149Z,56.78
2022-10-11T17:19:45.232Z,58.14
2022-10-11T17:22:17.102Z,59.42
2022-10-11T17:24:45.891Z,59.78
2022-10-11T17:27:14.440Z,60.80
2022-10-11T17:29:42.489Z,61.75
2022-10-11T17:32:10.638Z,64.56
2022-10-11T17:34:38.498Z,66.38
2022-10-11T17:37:08.872Z,65.59
2022-10-11T17:39:37.006Z,63.32
2022-10-11T17:42:07.594Z,61.69
2022-10-11T17:44:36.086Z,59.88
2022-10-11T17:47:04.338Z,57.22
2022-10-11T17:49:32.214Z,56.28
2022-10-11T17:52:00.565Z,57.05
2022-10-11T17:54:28.510Z,58.26
2022-10-11T17:56:56.601Z,59.24
2022-10-11T17:59:27.565Z,60.11
2022-10-11T18:01:55.737Z,61.20
2022-10-11T18:04:26.981Z,66.41
2022-10-11T18:06:55.273Z,67.99
2022-10-11T18:09:24.829Z,63.36
2022-10-11T18:11:53.083Z,58.13
2022-10-11T18:14:21.329Z,55.89
2022-10-11T18:16:49.571Z,56.62
2022-10-11T18:19:17.741Z,57.55
2022-10-11T18:21:45.949Z,59.03
2022-10-11T18:24:16.574Z,60.20
2022-10-11T18:26:46.761Z,61.33
2022-10-11T18:29:15.156Z,64.98
2022-10-11T18:31:44.086Z,65.23
2022-10-11T18:34:13.128Z,64.47
2022-10-11T18:36:42.074Z,64.39
2022-10-11T18:39:13.553Z,64.05
2022-10-11T18:41:44.666Z,63.61
2022-10-11T18:44:15.516Z,63.77
2022-10-11T18:46:45.270Z,62.32
2022-10-11T18:49:14.158Z,61.22
2022-10-11T18:51:43.192Z,61.21
2022-10-11T18:54:15.331Z,59.75
2022-10-11T18:56:47.467Z,55.49
2022-10-11T18:59:16.252Z,55.06
2022-10-11T19:01:44.851Z,56.48
2022-10-11T19:04:16.247Z,58.15
2022-10-11T19:06:47.997Z,59.49
2022-10-11T19:09:23.137Z,60.26
2022-10-11T19:11:53.988Z,64.02
2022-10-11T19:14:26.185Z,65.25
2022-10-11T19:16:56.251Z,64.45
2022-10-11T19:19:27.112Z,63.24
2022-10-11T19:21:55.546Z,62.67
2022-10-11T19:24:25.918Z,62.02
2022-10-11T19:26:59.760Z,62.08
2022-10-11T19:29:31.154Z,61.97
2022-10-11T19:32:01.291Z,61.66
2022-10-11T19:34:32.046Z,61.41
2022-10-11T19:37:01.307Z,61.57
2022-10-11T19:39:29.738Z,62.25
2022-10-11T19:41:57.769Z,62.79
2022-10-11T19:44:26.100Z,62.47
2022-10-11T19:46:54.983Z,62.78
2022-10-11T19:49:25.329Z,63.10
2022-10-11T19:51:55.689Z,63.08
2022-10-11T19:54:24.010Z,63.63
2022-10-11T19:56:52.766Z,64.12
2022-10-11T19:59:21.002Z,63.76
2022-10-11T20:01:52.859Z,64.90
2022-10-11T20:04:50.656Z,65.28
2022-10-11T20:07:10.600Z,64.67
2022-10-11T20:09:38.741Z,64.35
2022-10-11T20:12:07.197Z,64.32
2022-10-11T20:14:35.230Z,65.00
2022-10-11T20:17:03.396Z,66.11
2022-10-11T20:19:31.916Z,65.74
2022-10-11T20:22:00.991Z,65.74
2022-10-11T20:24:33.755Z,65.54
2022-10-11T20:27:04.906Z,65.23
2022-10-11T20:29:33.492Z,65.36
2022-10-11T20:32:01.591Z,65.34
2022-10-11T20:34:30.766Z,65.27
2022-10-11T20:36:59.689Z,65.37
2022-10-11T20:39:27.678Z,65.12
2022-10-11T20:41:55.647Z,65.01
2022-10-11T20:44:23.833Z,64.85
2022-10-11T20:46:51.818Z,64.57
2022-10-11T20:49:20.823Z,64.43
2022-10-11T20:51:49.138Z,64.59
2022-10-11T20:54:17.314Z,64.46
2022-10-11T20:56:45.445Z,64.57
2022-10-11T20:59:14.057Z,64.20
2022-10-11T21:01:42.247Z,63.94
2022-10-11T21:04:17.920Z,64.46
2022-10-11T21:06:47.049Z,64.32
2022-10-11T21:09:22.614Z,63.76
2022-10-11T21:11:50.756Z,63.67
2022-10-11T21:14:19.336Z,63.82
2022-10-11T21:16:47.221Z,63.86
2022-10-11T21:19:15.825Z,63.79
2022-10-11T21:21:46.433Z,63.42
2022-10-11T21:24:16.574Z,63.22
2022-10-11T21:26:44.755Z,63.33
2022-10-11T21:29:12.886Z,63.49
2022-10-11T21:31:41.076Z,63.48
2022-10-11T21:34:10.028Z,63.48
2022-10-11T21:36:38.960Z,63.38
2022-10-11T21:39:07.071Z,63.38
2022-10-11T21:41:35.089Z,63.60
2022-10-11T21:44:03.480Z,63.44
2022-10-11T21:47:01.312Z,63.36
2022-10-11T21:49:21.445Z,63.46
2022-10-11T21:51:49.457Z,63.70
2022-10-11T21:54:17.733Z,63.92
2022-10-11T21:56:45.878Z,63.86
2022-10-11T21:59:13.900Z,63.85
2022-10-11T22:01:43.485Z,63.84
2022-10-11T22:04:12.121Z,64.18
2022-10-11T22:06:40.693Z,64.10
2022-10-11T22:09:09.132Z,63.68
2022-10-11T22:11:37.886Z,63.62
2022-10-11T22:14:06.107Z,63.91
2022-10-11T22:16:35.798Z,63.80
2022-10-11T22:19:04.299Z,63.68
2022-10-11T22:21:32.451Z,63.89
2022-10-11T22:24:00.630Z,63.66
2022-10-11T22:26:31.193Z,63.79
2022-10-11T22:29:00.570Z,63.59
2022-10-11T22:31:30.145Z,63.80
2022-10-11T22:34:00.441Z,63.74
2022-10-11T22:36:33.955Z,63.57
2022-10-11T22:39:07.650Z,63.65
2022-10-11T22:41:36.720Z,63.50
2022-10-11T22:44:04.927Z,63.61
2022-10-11T22:46:32.802Z,63.65
2022-10-11T22:49:00.882Z,63.53
2022-10-11T22:51:28.819Z,63.49
2022-10-11T22:53:56.725Z,63.71
2022-10-11T22:56:24.864Z,63.55
2022-10-11T22:58:52.718Z,63.36
2022-10-11T23:01:20.766Z,63.62
2022-10-11T23:03:50.860Z,63.99
2022-10-11T23:06:18.925Z,63.94
2022-10-11T23:08:46.729Z,63.75
2022-10-11T23:11:14.999Z,63.86
2022-10-11T23:13:43.092Z,63.93
2022-10-11T23:16:12.872Z,63.90
2022-10-11T23:18:42.169Z,64.02
2022-10-11T23:21:10.762Z,64.15
2022-10-11T23:23:39.967Z,64.15
2022-10-11T23:26:12.602Z,64.20
2022-10-11T23:28:41.866Z,63.96
2022-10-11T23:31:20.263Z,64.04
2022-10-11T23:33:48.795Z,64.31
2022-10-11T23:36:19.548Z,63.95
2022-10-11T23:39:05.854Z,63.90
2022-10-11T23:41:33.745Z,63.93
2022-10-11T23:44:01.770Z,63.98
2022-10-11T23:46:29.794Z,63.94
2022-10-11T23:48:57.773Z,64.07
2022-10-11T23:51:25.840Z,64.09
2022-10-11T23:53:53.840Z,63.77
2022-10-11T23:56:22.098Z,63.83
2022-10-11T23:58:50.184Z,63.90
